createdAt,value
2022-12-09T00:08:25.477Z,0.80
2022-12-09T00:15:25.374Z,1.10
2022-12-09T00:48:08.671Z,0.80
2022-12-09T01:45:03.739Z,0.90
2022-12-09T01:52:30.070Z,0.82
2022-12-09T01:55:54.099Z,0.90
2022-12-09T01:58:56.480Z,0.85
2022-12-09T02:02:26.657Z,0.80
2022-12-09T02:05:54.044Z,0.88
2022-12-09T02:09:24.107Z,0.80
2022-12-09T02:12:34.989Z,0.90
2022-12-09T02:16:06.097Z,0.90
2022-12-09T02:19:48.053Z,0.95
2022-12-09T02:23:32.591Z,0.60
2022-12-09T02:27:05.999Z,0.80
2022-12-09T02:30:48.075Z,0.80
2022-12-09T02:34:32.993Z,0.73
2022-12-09T02:38:26.731Z,0.70
2022-12-09T02:41:54.159Z,0.63
2022-12-09T02:45:26.983Z,0.90
2022-12-09T02:48:54.190Z,0.80
2022-12-09T02:52:27.533Z,0.75
2022-12-09T02:55:57.133Z,0.88
2022-12-09T02:59:27.782Z,0.70
2022-12-09T03:02:51.389Z,0.75
2022-12-09T03:06:27.734Z,0.80
2022-12-09T03:13:48.630Z,0.90
2022-12-09T03:17:18.793Z,0.80
2022-12-09T03:20:48.536Z,0.90
2022-12-09T03:27:36.575Z,0.90
2022-12-09T03:31:06.776Z,0.90
2022-12-09T03:34:36.897Z,0.80
2022-12-09T03:41:14.998Z,0.90
2022-12-09T03:44:39.163Z,0.80
2022-12-09T03:48:17.179Z,0.70
2022-12-09T03:51:48.952Z,1.38
2022-12-09T03:55:18.814Z,0.80
2022-12-09T03:58:33.452Z,0.70
2022-12-09T04:02:00.982Z,0.73
2022-12-09T04:05:30.001Z,1.00
2022-12-09T04:08:59.425Z,1.00
2022-12-09T04:12:30.304Z,1.08
2022-12-09T04:15:54.996Z,1.50
2022-12-09T04:19:22.700Z,1.50
2022-12-09T04:23:03.578Z,1.50
2022-12-09T04:26:27.505Z,1.45
2022-12-09T04:29:40.590Z,1.50
2022-12-09T04:33:07.482Z,1.30
2022-12-09T04:36:39.576Z,1.35
2022-12-09T04:40:18.184Z,1.40
2022-12-09T04:43:49.259Z,1.48
2022-12-09T04:47:19.634Z,1.35
2022-12-09T04:50:31.013Z,1.60
2022-12-09T04:53:49.473Z,1.45
2022-12-09T04:57:09.844Z,1.42
2022-12-09T05:00:21.219Z,1.50
2022-12-09T05:03:37.738Z,1.60
2022-12-09T05:06:49.533Z,1.60
2022-12-09T05:10:08.088Z,1.67
2022-12-09T05:13:41.360Z,1.55
2022-12-09T05:16:28.025Z,1.50
2022-12-09T05:19:16.044Z,1.60
2022-12-09T05:22:42.986Z,1.60
2022-12-09T05:43:25.979Z,1.70
2022-12-09T06:14:16.253Z,2.60
2022-12-09T08:44:03.545Z,1.75
2022-12-09T08:47:42.204Z,1.65
2022-12-09T08:50:48.629Z,3.65
2022-12-09T08:53:40.737Z,1.88
2022-12-09T08:56:50.793Z,1.80
2022-12-09T11:49:58.442Z,2.15
2022-12-09T11:52:38.109Z,1.90
2022-12-09T11:55:40.116Z,2.03
2022-12-09T11:58:43.314Z,1.75
2022-12-09T12:01:51.002Z,1.90
2022-12-09T12:37:58.677Z,1.75
2022-12-09T12:40:45.270Z,1.80
2022-12-09T12:44:16.352Z,2.17
2022-12-09T12:46:58.990Z,1.85
2022-12-09T13:20:06.643Z,2.10
2022-12-09T13:23:05.004Z,2.38
2022-12-09T13:26:00.516Z,2.00
2022-12-09T13:28:55.828Z,2.08
2022-12-09T13:31:48.720Z,2.00
2022-12-09T13:34:49.898Z,2.10
2022-12-09T13:38:18.958Z,2.00
2022-12-09T13:41:01.803Z,2.22
2022-12-09T13:43:53.716Z,2.20
2022-12-09T13:46:50.005Z,2.08
2022-12-09T13:49:38.522Z,2.00
2022-12-09T13:52:56.075Z,2.30
2022-12-09T13:59:26.130Z,2.10
2022-12-09T14:02:50.229Z,2.00
2022-12-09T14:06:02.197Z,1.70
2022-12-09T14:09:20.221Z,2.17
2022-12-09T14:12:26.252Z,1.92
2022-12-09T14:16:15.012Z,2.00
2022-12-09T14:19:19.460Z,2.20
2022-12-09T14:22:34.461Z,1.50
2022-12-09T14:26:26.589Z,2.72
2022-12-09T14:29:19.030Z,1.88
2022-12-09T14:32:21.007Z,2.60
2022-12-09T14:35:56.464Z,1.80
2022-12-09T14:39:23.863Z,1.80
2022-12-09T14:42:38.534Z,1.98
2022-12-09T14:46:21.250Z,2.05
2022-12-09T14:49:56.611Z,1.90
2022-12-09T14:53:27.304Z,2.10
2022-12-09T14:56:33.336Z,2.10
2022-12-09T14:59:56.795Z,2.35
2022-12-09T15:03:32.166Z,2.20
2022-12-09T15:06:42.003Z,2.10
2022-12-09T15:09:45.443Z,2.33
2022-12-09T15:13:09.471Z,2.20
2022-12-09T15:16:20.920Z,2.50
2022-12-09T15:20:00.155Z,2.58
2022-12-09T15:22:58.218Z,2.30
2022-12-09T15:30:20.931Z,2.25
2022-12-09T15:50:32.307Z,2.20
2022-12-09T15:54:13.795Z,2.20
2022-12-09T16:01:58.901Z,2.38
2022-12-09T16:13:25.432Z,2.15
2022-12-09T16:29:24.551Z,2.50
2022-12-09T16:45:03.150Z,2.70
2022-12-09T16:55:56.252Z,3.00
2022-12-09T16:58:48.985Z,2.83
2022-12-09T17:01:47.818Z,2.60
2022-12-09T17:05:09.324Z,2.72
2022-12-09T17:08:44.106Z,2.50
2022-12-09T17:12:02.134Z,2.55
2022-12-09T17:15:23.982Z,2.60
2022-12-09T17:18:53.946Z,2.65
2022-12-09T17:22:13.640Z,2.55
2022-12-09T17:25:31.093Z,2.28
2022-12-09T17:28:48.045Z,2.83
2022-12-09T17:31:46.419Z,2.40
2022-12-09T17:34:56.333Z,2.80
2022-12-09T17:38:01.946Z,2.40
2022-12-09T17:41:08.390Z,2.67
2022-12-09T17:44:14.420Z,2.50
2022-12-09T17:47:20.448Z,2.70
2022-12-09T17:50:33.077Z,2.60
2022-12-09T17:53:38.503Z,2.80
2022-12-09T17:56:45.128Z,2.83
2022-12-09T17:59:56.742Z,2.78
2022-12-09T18:03:02.872Z,2.72
2022-12-09T18:06:14.613Z,2.67
2022-12-09T18:09:27.232Z,2.30
2022-12-09T18:12:32.677Z,2.47
2022-12-09T18:15:39.285Z,3.00
2022-12-09T18:18:44.740Z,2.53
2022-12-09T18:21:57.340Z,2.20
2022-12-09T18:25:02.805Z,3.42
2022-12-09T18:28:08.836Z,2.65
2022-12-09T18:31:14.995Z,2.53
2022-12-09T18:34:21.445Z,2.67
2022-12-09T18:37:32.934Z,2.72
2022-12-09T18:40:39.499Z,2.20
2022-12-09T18:43:44.997Z,2.80
2022-12-09T18:46:51.624Z,2.55
2022-12-09T18:50:03.058Z,2.88
2022-12-09T18:53:21.085Z,2.80
2022-12-09T18:56:27.116Z,2.58
2022-12-09T18:59:33.669Z,2.55
2022-12-09T19:02:39.263Z,2.25
2022-12-09T19:05:51.726Z,2.25
2022-12-09T19:09:03.228Z,1.98
2022-12-09T19:12:45.270Z,1.98
2022-12-09T19:15:25.085Z,1.83
2022-12-09T19:18:27.833Z,2.10
2022-12-09T19:21:39.340Z,1.80
2022-12-09T19:24:51.890Z,1.70
2022-12-09T19:27:57.396Z,1.75
2022-12-09T19:31:03.995Z,1.73
2022-12-09T19:34:07.284Z,1.65
2022-12-09T19:37:15.491Z,1.75
2022-12-09T19:40:27.523Z,1.63
2022-12-09T19:43:34.051Z,1.50
2022-12-09T19:46:39.621Z,1.60
2022-12-09T19:49:46.096Z,1.50
2022-12-09T19:52:51.641Z,1.92
2022-12-09T19:56:04.152Z,1.58
2022-12-09T19:59:07.313Z,1.60
2022-12-09T20:02:07.692Z,1.70
2022-12-09T20:05:07.483Z,1.77
2022-12-09T20:08:10.302Z,1.70
2022-12-09T20:11:07.965Z,1.50
2022-12-09T20:14:09.832Z,1.70
2022-12-09T20:17:16.325Z,1.27
2022-12-09T20:20:22.353Z,1.73
2022-12-09T20:23:24.071Z,1.60
2022-12-09T20:26:34.406Z,1.60
2022-12-09T20:29:39.973Z,1.55
2022-12-09T20:32:46.455Z,1.27
2022-12-09T20:35:52.484Z,1.70
2022-12-09T20:38:58.507Z,1.50
2022-12-09T20:42:10.103Z,1.50
2022-12-09T20:45:16.135Z,1.58
2022-12-09T20:48:40.591Z,1.60
2022-12-09T20:51:46.618Z,1.48
2022-12-09T20:54:52.236Z,1.50
2022-12-09T20:58:16.679Z,1.52
2022-12-09T21:01:50.145Z,1.70
2022-12-09T21:05:14.370Z,1.50
2022-12-09T21:08:31.274Z,1.50
2022-12-09T21:11:50.427Z,1.52
2022-12-09T21:15:03.212Z,1.58
2022-12-09T21:18:15.240Z,1.45
2022-12-09T21:21:27.267Z,1.50
2022-12-09T21:24:45.346Z,1.58
2022-12-09T21:27:57.488Z,1.60
2022-12-09T21:31:09.766Z,1.40
2022-12-09T21:38:15.910Z,1.50
2022-12-09T21:45:34.358Z,1.38
2022-12-09T21:49:07.010Z,1.40
2022-12-09T21:53:39.587Z,1.50
2022-12-09T22:01:09.716Z,1.65
2022-12-09T22:04:21.597Z,1.50
2022-12-09T22:07:27.755Z,1.48
2022-12-09T22:10:32.228Z,1.30
2022-12-09T22:13:39.934Z,1.27
2022-12-09T22:16:51.192Z,1.45
2022-12-09T22:20:43.886Z,1.45
2022-12-09T22:23:27.196Z,1.60
2022-12-09T22:26:33.883Z,1.30
2022-12-09T22:29:39.246Z,1.27
2022-12-09T22:32:50.626Z,1.75
2022-12-09T22:36:03.300Z,1.50
2022-12-09T22:39:09.989Z,1.38
2022-12-09T22:42:03.349Z,1.38
2022-12-09T22:45:10.042Z,1.38
2022-12-09T22:48:14.319Z,1.13
2022-12-09T22:51:34.104Z,1.20
2022-12-09T22:54:39.462Z,1.58
2022-12-09T22:57:40.156Z,1.30
2022-12-09T23:00:50.443Z,1.38
2022-12-09T23:03:52.207Z,1.40
2022-12-09T23:07:03.580Z,1.40
2022-12-09T23:10:10.476Z,1.58
2022-12-09T23:13:06.503Z,1.50
2022-12-09T23:16:04.358Z,1.58
2022-12-09T23:19:09.690Z,1.27
2022-12-09T23:22:21.715Z,1.25
2022-12-09T23:25:27.745Z,1.40
2022-12-09T23:28:33.769Z,1.13
2022-12-09T23:31:45.796Z,1.10
2022-12-09T23:34:52.493Z,1.40
2022-12-09T23:38:09.855Z,1.17
2022-12-09T23:41:16.548Z,1.45
2022-12-09T23:44:27.919Z,1.25
2022-12-09T23:47:33.948Z,1.23
2022-12-09T23:50:39.971Z,1.55
2022-12-09T23:53:52.658Z,1.30
2022-12-09T23:57:04.027Z,1.60
